createdAt,value
2023-08-11T00:01:10.854Z,26.10
2023-08-11T00:03:37.913Z,26.12
2023-08-11T00:06:08.689Z,26.08
2023-08-11T00:08:38.267Z,26.06
2023-08-11T00:11:17.465Z,26.02
2023-08-11T00:13:49.414Z,25.98
2023-08-11T00:16:16.438Z,25.81
2023-08-11T00:18:44.122Z,25.99
2023-08-11T00:21:11.118Z,25.90
2023-08-11T00:23:45.592Z,25.88
2023-08-11T00:26:12.651Z,25.87
2023-08-11T00:28:40.417Z,25.88
2023-08-11T00:31:07.660Z,25.86
2023-08-11T00:33:34.660Z,25.85
2023-08-11T00:36:01.508Z,25.85
2023-08-11T00:38:42.879Z,25.72
2023-08-11T00:41:12.475Z,25.61
2023-08-11T00:43:40.472Z,25.66
2023-08-11T00:46:12.389Z,25.67
2023-08-11T00:48:40.381Z,25.77
2023-08-11T00:51:08.837Z,25.61
2023-08-11T00:53:36.339Z,25.55
2023-08-11T00:56:04.547Z,25.53
2023-08-11T00:58:35.164Z,25.56
2023-08-11T01:01:02.203Z,25.53
2023-08-11T01:03:32.127Z,25.48
2023-08-11T01:06:17.827Z,25.52
2023-08-11T01:09:07.303Z,25.47
2023-08-11T01:11:48.550Z,25.34
2023-08-11T01:14:24.393Z,25.38
2023-08-11T01:16:53.180Z,25.38
2023-08-11T01:19:29.810Z,25.35
2023-08-11T01:22:01.031Z,25.30
2023-08-11T01:24:29.690Z,25.26
2023-08-11T01:26:58.850Z,25.29
2023-08-11T01:29:26.904Z,25.29
2023-08-11T01:31:54.388Z,25.25
2023-08-11T01:34:29.464Z,25.27
2023-08-11T01:37:01.635Z,25.08
2023-08-11T01:39:29.908Z,24.98
2023-08-11T01:41:57.512Z,24.99
2023-08-11T01:44:26.612Z,24.98
2023-08-11T01:46:57.014Z,24.85
2023-08-11T01:49:26.383Z,24.90
2023-08-11T01:51:58.554Z,24.83
2023-08-11T01:54:25.994Z,24.81
2023-08-11T01:56:53.436Z,24.77
2023-08-11T01:59:23.925Z,24.74
2023-08-11T02:02:03.079Z,24.64
2023-08-11T02:04:30.110Z,24.60
2023-08-11T02:06:57.130Z,24.62
2023-08-11T02:09:24.158Z,24.67
2023-08-11T02:11:51.104Z,24.66
2023-08-11T02:14:18.980Z,24.63
2023-08-11T02:16:45.955Z,24.64
2023-08-11T02:19:17.278Z,24.61
2023-08-11T02:21:44.318Z,24.68
2023-08-11T02:24:11.299Z,24.65
2023-08-11T02:26:38.794Z,24.57
2023-08-11T02:29:07.184Z,24.69
2023-08-11T02:31:38.757Z,24.57
2023-08-11T02:34:06.361Z,24.55
2023-08-11T02:36:33.320Z,24.58
2023-08-11T02:39:00.356Z,24.43
2023-08-11T02:41:27.473Z,24.42
2023-08-11T02:43:54.583Z,24.44
2023-08-11T02:46:21.781Z,24.38
2023-08-11T02:48:51.671Z,24.36
2023-08-11T02:51:19.882Z,24.45
2023-08-11T02:53:46.858Z,24.45
2023-08-11T02:56:16.823Z,24.41
2023-08-11T02:58:44.033Z,24.35
2023-08-11T03:01:11.806Z,24.39
2023-08-11T03:03:39.497Z,24.44
2023-08-11T03:06:06.484Z,24.34
2023-08-11T03:08:35.075Z,24.26
2023-08-11T03:11:01.925Z,24.19
2023-08-11T03:13:30.523Z,24.30
2023-08-11T03:15:57.739Z,24.21
2023-08-11T03:18:26.505Z,24.22
2023-08-11T03:21:06.259Z,24.19
2023-08-11T03:23:41.178Z,24.11
2023-08-11T03:26:08.248Z,24.15
2023-08-11T03:28:35.136Z,24.14
2023-08-11T03:31:02.162Z,24.13
2023-08-11T03:33:29.092Z,24.08
2023-08-11T03:36:05.310Z,24.09
2023-08-11T03:38:32.272Z,24.07
2023-08-11T03:40:59.323Z,24.04
2023-08-11T03:43:26.428Z,24.00
2023-08-11T03:45:53.693Z,24.00
2023-08-11T03:48:20.790Z,24.08
2023-08-11T03:50:47.988Z,23.99
2023-08-11T03:53:18.412Z,24.00
2023-08-11T03:55:48.070Z,23.95
2023-08-11T03:58:20.876Z,24.01
2023-08-11T04:00:48.085Z,23.95
2023-08-11T04:03:16.579Z,23.95
2023-08-11T04:05:47.669Z,23.90
2023-08-11T04:08:14.572Z,23.91
2023-08-11T04:10:44.573Z,23.94
2023-08-11T04:13:11.714Z,23.92
2023-08-11T04:15:40.988Z,23.92
2023-08-11T04:18:14.282Z,23.90
2023-08-11T04:20:41.530Z,23.89
2023-08-11T04:23:10.113Z,23.91
2023-08-11T04:25:37.130Z,23.88
2023-08-11T04:28:04.754Z,23.89
2023-08-11T04:30:32.052Z,23.90
2023-08-11T04:32:59.739Z,23.87
2023-08-11T04:35:27.138Z,23.95
2023-08-11T04:37:54.093Z,24.07
2023-08-11T04:40:23.602Z,24.02
2023-08-11T04:42:50.555Z,23.96
2023-08-11T04:45:17.408Z,23.86
2023-08-11T04:47:44.535Z,23.80
2023-08-11T04:50:13.437Z,23.95
2023-08-11T04:52:47.310Z,24.01
2023-08-11T04:55:14.706Z,23.99
2023-08-11T04:57:41.625Z,23.87
2023-08-11T05:00:15.236Z,23.84
2023-08-11T05:02:43.408Z,23.85
2023-08-11T05:05:10.868Z,23.87
2023-08-11T05:07:39.341Z,23.84
2023-08-11T05:10:07.035Z,23.85
2023-08-11T05:12:34.782Z,23.85
2023-08-11T05:15:09.752Z,23.82
2023-08-11T05:17:44.282Z,23.83
2023-08-11T05:20:19.084Z,23.90
2023-08-11T05:22:46.089Z,23.92
2023-08-11T05:25:13.265Z,23.94
2023-08-11T05:27:43.797Z,23.94
2023-08-11T05:30:11.019Z,23.99
2023-08-11T05:32:38.288Z,24.08
2023-08-11T05:35:05.818Z,24.10
2023-08-11T05:37:34.098Z,24.14
2023-08-11T05:40:15.885Z,24.17
2023-08-11T05:42:47.723Z,24.21
2023-08-11T05:45:18.089Z,24.29
2023-08-11T05:47:45.379Z,24.32
2023-08-11T05:50:12.589Z,24.43
2023-08-11T05:52:39.622Z,24.55
2023-08-11T05:55:08.758Z,24.56
2023-08-11T05:57:47.258Z,24.63
2023-08-11T06:00:22.646Z,24.64
2023-08-11T06:02:56.259Z,24.69
2023-08-11T06:05:25.261Z,24.65
2023-08-11T06:08:05.143Z,24.74
2023-08-11T06:10:34.028Z,24.75
2023-08-11T06:13:01.352Z,24.74
2023-08-11T06:15:28.380Z,24.70
2023-08-11T06:17:55.907Z,24.77
2023-08-11T06:20:38.609Z,24.84
2023-08-11T06:23:09.226Z,24.82
2023-08-11T06:25:36.260Z,24.92
2023-08-11T06:28:03.485Z,25.05
2023-08-11T06:30:35.210Z,25.09
2023-08-11T06:33:10.659Z,25.18
2023-08-11T06:35:41.266Z,25.17
2023-08-11T06:38:11.756Z,25.18
2023-08-11T06:40:40.444Z,25.24
2023-08-11T06:43:10.787Z,25.27
2023-08-11T06:45:37.978Z,25.37
2023-08-11T06:48:05.439Z,25.40
2023-08-11T06:50:33.230Z,25.37
2023-08-11T06:53:00.711Z,25.47
2023-08-11T06:55:27.990Z,25.54
2023-08-11T06:57:59.853Z,25.63
2023-08-11T07:00:27.235Z,25.67
2023-08-11T07:02:54.581Z,25.73
2023-08-11T07:05:24.680Z,25.82
2023-08-11T07:07:53.031Z,25.84
2023-08-11T07:10:19.895Z,25.90
2023-08-11T07:12:46.978Z,25.96
2023-08-11T07:15:14.005Z,26.03
2023-08-11T07:17:41.120Z,26.05
2023-08-11T07:20:08.517Z,26.05
2023-08-11T07:22:36.232Z,26.17
2023-08-11T07:25:05.731Z,26.24
2023-08-11T07:27:32.786Z,26.23
2023-08-11T07:30:00.257Z,26.34
2023-08-11T07:32:28.309Z,26.38
2023-08-11T07:34:55.612Z,26.45
2023-08-11T07:37:22.914Z,26.50
2023-08-11T07:39:49.951Z,26.45
2023-08-11T07:42:16.938Z,26.41
2023-08-11T07:44:47.308Z,26.55
2023-08-11T07:47:14.220Z,26.66
2023-08-11T07:49:44.160Z,26.66
2023-08-11T07:52:23.543Z,26.63
2023-08-11T07:54:53.054Z,26.72
2023-08-11T07:57:21.302Z,26.81
2023-08-11T07:59:48.430Z,26.87
2023-08-11T08:02:16.950Z,26.92
2023-08-11T08:04:46.419Z,26.97
2023-08-11T08:07:13.535Z,26.99
2023-08-11T08:09:40.565Z,27.06
2023-08-11T08:12:17.328Z,27.09
2023-08-11T08:14:44.768Z,27.07
2023-08-11T08:17:11.868Z,27.12
2023-08-11T08:19:42.600Z,27.19
2023-08-11T08:22:10.722Z,27.09
2023-08-11T08:24:37.942Z,27.12
2023-08-11T08:27:05.120Z,27.23
2023-08-11T08:29:35.643Z,27.25
2023-08-11T08:32:02.532Z,27.22
2023-08-11T08:34:29.402Z,27.28
2023-08-11T08:36:57.334Z,27.37
2023-08-11T08:39:24.258Z,27.37
2023-08-11T08:41:53.880Z,27.38
2023-08-11T08:44:21.648Z,27.44
2023-08-11T08:46:51.607Z,27.46
2023-08-11T08:49:26.783Z,27.56
2023-08-11T08:51:55.868Z,27.55
2023-08-11T08:54:22.797Z,27.55
2023-08-11T08:56:51.162Z,27.62
2023-08-11T08:59:18.118Z,27.66
2023-08-11T09:01:45.718Z,27.74
2023-08-11T09:04:13.351Z,27.83
2023-08-11T09:06:40.881Z,27.88
2023-08-11T09:09:10.096Z,27.89
2023-08-11T09:11:39.591Z,27.93
2023-08-11T09:14:08.419Z,27.94
2023-08-11T09:16:36.449Z,27.99
2023-08-11T09:19:10.603Z,28.04
2023-08-11T09:21:37.882Z,28.13
2023-08-11T09:24:05.981Z,28.22
2023-08-11T09:26:33.910Z,28.27
2023-08-11T09:29:01.116Z,28.29
2023-08-11T09:31:29.943Z,28.29
2023-08-11T09:33:58.032Z,28.36
2023-08-11T09:36:35.258Z,28.42
2023-08-11T09:39:11.455Z,28.50
2023-08-11T09:41:42.470Z,28.59
2023-08-11T09:44:12.702Z,28.68
2023-08-11T09:46:40.744Z,28.72
2023-08-11T09:49:08.861Z,28.80
2023-08-11T09:51:37.517Z,28.89
2023-08-11T09:54:07.909Z,28.99
2023-08-11T09:56:43.721Z,29.12
2023-08-11T09:59:20.090Z,29.26
2023-08-11T10:01:49.958Z,29.38
2023-08-11T10:04:39.937Z,29.56
2023-08-11T10:07:14.711Z,29.74
2023-08-11T10:09:45.461Z,29.86
2023-08-11T10:12:14.391Z,29.91
2023-08-11T10:14:43.075Z,30.18
2023-08-11T10:17:11.879Z,30.36
2023-08-11T10:19:42.377Z,30.49
2023-08-11T10:22:13.463Z,30.73
2023-08-11T10:24:42.387Z,30.78
2023-08-11T10:27:09.743Z,30.89
2023-08-11T10:29:39.883Z,31.08
2023-08-11T10:32:14.551Z,31.12
2023-08-11T10:34:41.548Z,31.37
2023-08-11T10:37:09.431Z,31.55
2023-08-11T10:39:38.836Z,31.67
2023-08-11T10:42:07.262Z,31.80
2023-08-11T10:44:34.989Z,32.00
2023-08-11T10:47:04.345Z,32.16
2023-08-11T10:49:36.027Z,32.17
2023-08-11T10:52:13.926Z,32.29
2023-08-11T10:54:50.266Z,32.34
2023-08-11T10:57:17.588Z,32.37
2023-08-11T10:59:44.739Z,32.60
2023-08-11T11:02:13.826Z,32.76
2023-08-11T11:04:47.830Z,32.87
2023-08-11T11:07:16.130Z,32.85
2023-08-11T11:09:43.950Z,32.98
2023-08-11T11:12:11.845Z,33.17
2023-08-11T11:14:39.305Z,33.33
2023-08-11T11:17:07.718Z,33.47
2023-08-11T11:19:34.941Z,33.60
2023-08-11T11:22:01.996Z,33.81
2023-08-11T11:24:28.927Z,33.92
2023-08-11T11:26:57.787Z,33.99
2023-08-11T11:29:29.954Z,34.20
2023-08-11T11:31:58.139Z,34.25
2023-08-11T11:34:25.381Z,34.06
2023-08-11T11:36:52.612Z,34.22
2023-08-11T11:39:20.181Z,34.24
2023-08-11T11:41:47.187Z,34.46
2023-08-11T11:44:14.585Z,34.77
2023-08-11T11:46:41.818Z,35.00
2023-08-11T11:49:19.571Z,35.07
2023-08-11T11:51:56.141Z,35.04
2023-08-11T11:54:27.140Z,35.13
2023-08-11T11:57:04.315Z,35.37
2023-08-11T11:59:37.100Z,35.67
2023-08-11T12:02:05.481Z,35.83
2023-08-11T12:04:32.936Z,35.89
2023-08-11T12:07:00.003Z,35.96
2023-08-11T12:09:27.007Z,36.08
2023-08-11T12:11:57.834Z,36.09
2023-08-11T12:14:35.430Z,36.01
2023-08-11T12:17:02.381Z,36.09
2023-08-11T12:19:30.090Z,36.17
2023-08-11T12:21:59.755Z,36.24
2023-08-11T12:24:34.809Z,36.44
2023-08-11T12:27:01.688Z,36.55
2023-08-11T12:29:28.878Z,36.73
2023-08-11T12:32:00.526Z,36.80
2023-08-11T12:34:28.470Z,37.10
2023-08-11T12:36:59.088Z,37.07
2023-08-11T12:39:29.473Z,36.94
2023-08-11T12:41:56.803Z,37.19
2023-08-11T12:44:26.046Z,37.36
2023-08-11T12:46:53.653Z,37.44
2023-08-11T12:49:23.278Z,37.58
2023-08-11T12:51:52.661Z,37.52
2023-08-11T12:54:20.115Z,37.44
2023-08-11T12:56:51.959Z,37.58
2023-08-11T12:59:18.962Z,37.70
2023-08-11T13:01:46.194Z,37.83
2023-08-11T13:04:13.601Z,37.91
2023-08-11T13:06:41.192Z,38.10
2023-08-11T13:09:13.155Z,38.29
2023-08-11T13:11:40.009Z,38.38
2023-08-11T13:14:08.000Z,38.38
2023-08-11T13:16:36.999Z,37.97
2023-08-11T13:19:04.802Z,38.10
2023-08-11T13:21:32.492Z,38.30
2023-08-11T13:24:00.913Z,38.52
2023-08-11T13:26:28.322Z,38.39
2023-08-11T13:28:58.512Z,38.16
2023-08-11T13:31:26.512Z,37.52
2023-08-11T13:33:53.464Z,37.09
2023-08-11T13:36:28.450Z,36.81
2023-08-11T13:38:57.981Z,36.60
2023-08-11T13:41:25.095Z,36.33
2023-08-11T13:43:56.405Z,36.22
2023-08-11T13:46:28.916Z,36.16
2023-08-11T13:49:00.528Z,36.45
2023-08-11T13:51:28.441Z,36.81
2023-08-11T13:53:55.460Z,37.11
2023-08-11T13:56:22.828Z,37.03
2023-08-11T13:58:49.971Z,36.49
2023-08-11T14:01:17.118Z,36.08
2023-08-11T14:03:50.301Z,35.89
2023-08-11T14:06:17.398Z,35.68
2023-08-11T14:08:47.305Z,35.59
2023-08-11T14:11:23.411Z,35.51
2023-08-11T14:14:02.737Z,35.39
2023-08-11T14:16:35.294Z,35.19
2023-08-11T14:19:02.596Z,35.09
2023-08-11T14:21:29.900Z,34.97
2023-08-11T14:23:57.023Z,34.87
2023-08-11T14:26:23.944Z,34.86
2023-08-11T14:28:51.780Z,34.78
2023-08-11T14:31:18.732Z,34.77
2023-08-11T14:33:45.865Z,34.63
2023-08-11T14:36:14.079Z,34.63
2023-08-11T14:38:42.110Z,34.53
2023-08-11T14:41:09.868Z,34.51
2023-08-11T14:43:36.756Z,34.45
2023-08-11T14:46:03.975Z,34.35
2023-08-11T14:48:31.123Z,34.30
2023-08-11T14:51:03.834Z,34.31
2023-08-11T14:53:31.501Z,34.18
2023-08-11T14:55:59.958Z,34.13
2023-08-11T14:58:26.897Z,34.04
2023-08-11T15:00:54.612Z,34.00
2023-08-11T15:03:22.494Z,33.99
2023-08-11T15:05:49.592Z,34.07
2023-08-11T15:08:16.678Z,34.42
2023-08-11T15:10:43.769Z,35.20
2023-08-11T15:13:10.784Z,35.79
2023-08-11T15:15:42.404Z,36.39
2023-08-11T15:18:09.632Z,36.83
2023-08-11T15:20:45.367Z,37.24
2023-08-11T15:23:12.955Z,37.53
2023-08-11T15:25:42.555Z,37.76
2023-08-11T15:28:19.602Z,37.98
2023-08-11T15:30:48.577Z,38.15
2023-08-11T15:33:20.790Z,38.12
2023-08-11T15:35:47.916Z,38.15
2023-08-11T15:38:18.076Z,37.96
2023-08-11T15:40:45.936Z,37.49
2023-08-11T15:43:13.148Z,36.98
2023-08-11T15:45:40.002Z,36.94
2023-08-11T15:48:07.178Z,36.90
2023-08-11T15:50:34.185Z,36.66
2023-08-11T15:53:06.447Z,36.30
2023-08-11T15:55:36.678Z,35.81
2023-08-11T15:58:05.094Z,35.23
2023-08-11T16:00:33.108Z,34.97
2023-08-11T16:03:00.861Z,34.81
2023-08-11T16:05:27.799Z,34.77
2023-08-11T16:07:54.772Z,34.68
2023-08-11T16:10:24.534Z,34.34
2023-08-11T16:12:52.001Z,34.28
2023-08-11T16:15:18.952Z,34.18
2023-08-11T16:17:45.966Z,34.13
2023-08-11T16:20:13.158Z,34.00
2023-08-11T16:22:40.059Z,33.89
2023-08-11T16:25:09.963Z,33.81
2023-08-11T16:27:36.971Z,33.60
2023-08-11T16:30:04.336Z,33.55
2023-08-11T16:32:32.205Z,33.58
2023-08-11T16:34:59.325Z,33.46
2023-08-11T16:37:26.455Z,33.60
2023-08-11T16:39:53.427Z,33.76
2023-08-11T16:42:20.869Z,33.96
2023-08-11T16:44:47.878Z,33.93
2023-08-11T16:47:14.867Z,33.98
2023-08-11T16:49:41.945Z,33.98
2023-08-11T16:52:17.679Z,34.03
2023-08-11T16:54:51.498Z,34.13
2023-08-11T16:57:24.181Z,34.00
2023-08-11T16:59:51.617Z,33.68
2023-08-11T17:02:18.924Z,33.51
2023-08-11T17:04:46.137Z,33.38
2023-08-11T17:07:13.135Z,33.25
2023-08-11T17:09:48.335Z,33.05
2023-08-11T17:12:20.679Z,33.01
2023-08-11T17:14:49.200Z,32.95
2023-08-11T17:17:16.266Z,32.87
2023-08-11T17:19:45.155Z,32.79
2023-08-11T17:22:19.748Z,32.60
2023-08-11T17:24:49.982Z,32.53
2023-08-11T17:27:17.162Z,32.45
2023-08-11T17:29:46.235Z,32.43
2023-08-11T17:32:13.317Z,32.33
2023-08-11T17:34:54.580Z,32.24
2023-08-11T17:37:33.409Z,32.09
2023-08-11T17:40:01.099Z,32.04
2023-08-11T17:42:29.593Z,32.03
2023-08-11T17:44:57.743Z,32.02
2023-08-11T17:47:24.786Z,31.98
2023-08-11T17:49:53.028Z,31.86
2023-08-11T17:52:20.210Z,31.78
2023-08-11T17:54:47.456Z,31.67
2023-08-11T17:57:16.839Z,31.53
2023-08-11T17:59:43.910Z,31.49
2023-08-11T18:02:11.308Z,31.37
2023-08-11T18:04:39.678Z,31.39
2023-08-11T18:07:06.650Z,31.28
2023-08-11T18:09:33.672Z,31.25
2023-08-11T18:12:00.710Z,31.24
2023-08-11T18:14:30.314Z,31.03
2023-08-11T18:17:02.235Z,31.07
2023-08-11T18:19:30.007Z,31.01
2023-08-11T18:21:57.047Z,30.96
2023-08-11T18:24:24.028Z,30.96
2023-08-11T18:26:54.460Z,30.87
2023-08-11T18:29:21.644Z,30.84
2023-08-11T18:31:48.875Z,30.77
2023-08-11T18:34:15.805Z,30.70
2023-08-11T18:36:42.819Z,30.59
2023-08-11T18:39:09.916Z,30.53
2023-08-11T18:41:37.385Z,30.52
2023-08-11T18:44:05.821Z,30.46
2023-08-11T18:46:42.192Z,30.40
2023-08-11T18:49:10.920Z,30.29
2023-08-11T18:51:38.401Z,30.23
2023-08-11T18:54:13.273Z,30.15
2023-08-11T18:56:44.059Z,30.15
2023-08-11T18:59:11.757Z,30.06
2023-08-11T19:01:48.808Z,30.09
2023-08-11T19:04:15.974Z,30.06
2023-08-11T19:06:43.983Z,30.06
2023-08-11T19:09:11.764Z,29.92
2023-08-11T19:11:50.047Z,29.83
2023-08-11T19:14:18.201Z,29.78
2023-08-11T19:16:45.599Z,29.69
2023-08-11T19:19:16.990Z,29.71
2023-08-11T19:21:47.879Z,29.58
2023-08-11T19:24:15.213Z,29.54
2023-08-11T19:26:42.113Z,29.47
2023-08-11T19:29:14.630Z,29.42
2023-08-11T19:31:41.650Z,29.38
2023-08-11T19:34:13.197Z,29.31
2023-08-11T19:36:42.730Z,29.30
2023-08-11T19:39:14.976Z,29.24
2023-08-11T19:41:42.394Z,29.25
2023-08-11T19:44:09.470Z,29.22
2023-08-11T19:46:36.470Z,29.11
2023-08-11T19:49:06.710Z,29.03
2023-08-11T19:51:33.733Z,29.04
2023-08-11T19:54:01.222Z,28.92
2023-08-11T19:56:30.420Z,28.95
2023-08-11T19:58:57.650Z,28.94
2023-08-11T20:01:24.835Z,28.86
2023-08-11T20:03:52.203Z,28.78
2023-08-11T20:06:19.265Z,28.76
2023-08-11T20:08:47.012Z,28.70
2023-08-11T20:11:20.260Z,28.73
2023-08-11T20:13:47.349Z,28.70
2023-08-11T20:16:14.990Z,28.68
2023-08-11T20:18:42.078Z,28.67
2023-08-11T20:21:09.340Z,28.64
2023-08-11T20:23:36.526Z,28.56
2023-08-11T20:26:03.568Z,28.49
2023-08-11T20:28:31.350Z,28.46
2023-08-11T20:31:02.788Z,28.33
2023-08-11T20:33:29.855Z,28.33
2023-08-11T20:36:02.901Z,28.33
2023-08-11T20:38:39.476Z,28.34
2023-08-11T20:41:07.383Z,28.32
2023-08-11T20:43:42.374Z,28.24
2023-08-11T20:46:09.454Z,28.18
2023-08-11T20:48:38.961Z,28.13
2023-08-11T20:51:15.325Z,28.11
2023-08-11T20:53:42.353Z,28.12
2023-08-11T20:56:19.469Z,28.04
2023-08-11T20:58:55.189Z,28.00
2023-08-11T21:01:22.606Z,27.95
2023-08-11T21:03:53.938Z,28.03
2023-08-11T21:06:27.769Z,28.00
2023-08-11T21:09:01.106Z,28.00
2023-08-11T21:11:28.131Z,27.94
2023-08-11T21:13:58.199Z,27.84
2023-08-11T21:16:25.136Z,27.84
2023-08-11T21:18:52.566Z,27.91
2023-08-11T21:21:19.610Z,27.78
2023-08-11T21:23:46.546Z,27.70
2023-08-11T21:26:13.700Z,27.72
2023-08-11T21:28:40.909Z,27.65
2023-08-11T21:31:17.426Z,27.63
2023-08-11T21:33:45.603Z,27.51
2023-08-11T21:36:15.729Z,27.57
2023-08-11T21:38:43.611Z,27.50
2023-08-11T21:41:12.832Z,27.55
2023-08-11T21:43:52.666Z,27.52
2023-08-11T21:46:31.512Z,27.40
2023-08-11T21:49:01.920Z,27.36
2023-08-11T21:51:28.915Z,27.40
2023-08-11T21:54:05.051Z,27.36
2023-08-11T21:56:32.011Z,27.35
2023-08-11T21:58:59.256Z,27.26
2023-08-11T22:01:26.490Z,27.28
2023-08-11T22:03:54.302Z,27.34
2023-08-11T22:06:21.468Z,27.22
2023-08-11T22:08:48.643Z,27.24
2023-08-11T22:11:33.841Z,27.19
2023-08-11T22:14:03.021Z,27.14
2023-08-11T22:16:30.479Z,27.10
2023-08-11T22:18:58.468Z,27.12
2023-08-11T22:21:25.811Z,27.13
2023-08-11T22:23:52.849Z,27.07
2023-08-11T22:26:23.010Z,26.90
2023-08-11T22:28:50.215Z,26.89
2023-08-11T22:31:17.285Z,26.81
2023-08-11T22:33:44.417Z,26.63
2023-08-11T22:36:11.530Z,26.60
2023-08-11T22:38:46.891Z,26.57
2023-08-11T22:41:13.931Z,26.50
2023-08-11T22:43:40.876Z,26.45
2023-08-11T22:46:10.808Z,26.44
2023-08-11T22:48:38.146Z,26.52
2023-08-11T22:51:06.940Z,26.58
2023-08-11T22:53:37.274Z,26.50
2023-08-11T22:56:04.482Z,26.62
2023-08-11T22:58:31.899Z,26.57
2023-08-11T23:00:59.015Z,26.58
2023-08-11T23:03:27.384Z,26.39
2023-08-11T23:05:54.408Z,26.45
2023-08-11T23:08:23.995Z,26.41
2023-08-11T23:10:51.791Z,26.28
2023-08-11T23:13:26.589Z,26.21
2023-08-11T23:15:57.809Z,26.16
2023-08-11T23:18:24.746Z,26.10
2023-08-11T23:20:56.323Z,26.03
2023-08-11T23:23:23.415Z,26.05
2023-08-11T23:25:57.001Z,25.94
2023-08-11T23:28:25.469Z,25.89
2023-08-11T23:30:52.677Z,25.89
2023-08-11T23:33:20.087Z,25.78
2023-08-11T23:35:47.315Z,25.66
2023-08-11T23:38:14.273Z,25.69
2023-08-11T23:40:41.280Z,25.81
2023-08-11T23:43:08.338Z,25.77
2023-08-11T23:45:36.137Z,25.81
2023-08-11T23:48:11.807Z,25.73
2023-08-11T23:50:47.230Z,25.65
2023-08-11T23:53:23.924Z,25.60
2023-08-11T23:55:59.285Z,25.66
2023-08-11T23:58:26.574Z,25.61
